sensor_id;sensor_type;location;lat;lon;timestamp;P1;durP1;ratioP1;P2;durP2;ratioP2
31010;SDS011;26395;53.412;19.598;2024-01-07T00:11:16;51.90;;;18.70;;
31010;SDS011;26395;53.412;19.598;2024-01-07T00:26:23;84.10;;;24.50;;
31010;SDS011;26395;53.412;19.598;2024-01-07T00:41:26;83.70;;;24.10;;
31010;SDS011;26395;53.412;19.598;2024-01-07T01:11:33;40.30;;;16.10;;
31010;SDS011;26395;53.412;19.598;2024-01-07T01:26:37;39.60;;;11.10;;
31010;SDS011;26395;53.412;19.598;2024-01-07T01:41:42;36.80;;;15.50;;
31010;SDS011;26395;53.412;19.598;2024-01-07T02:12:05;53.40;;;15.00;;
31010;SDS011;26395;53.412;19.598;2024-01-07T02:27:15;43.30;;;14.20;;
31010;SDS011;26395;53.412;19.598;2024-01-07T02:42:19;43.90;;;14.80;;
31010;SDS011;26395;53.412;19.598;2024-01-07T02:57:22;23.10;;;8.10;;
31010;SDS011;26395;53.412;19.598;2024-01-07T03:12:26;18.10;;;9.40;;
31010;SDS011;26395;53.412;19.598;2024-01-07T03:27:29;32.80;;;14.50;;
31010;SDS011;26395;53.412;19.598;2024-01-07T03:42:33;47.00;;;19.10;;
31010;SDS011;26395;53.412;19.598;2024-01-07T03:57:36;73.60;;;24.40;;
31010;SDS011;26395;53.412;19.598;2024-01-07T04:12:40;117.60;;;34.40;;
31010;SDS011;26395;53.412;19.598;2024-01-07T04:27:44;120.80;;;40.90;;
31010;SDS011;26395;53.412;19.598;2024-01-07T04:42:48;137.50;;;42.40;;
31010;SDS011;26395;53.412;19.598;2024-01-07T04:57:51;166.80;;;54.90;;
31010;SDS011;26395;53.412;19.598;2024-01-07T05:12:55;112.60;;;37.50;;
31010;SDS011;26395;53.412;19.598;2024-01-07T05:28:00;97.20;;;31.40;;
31010;SDS011;26395;53.412;19.598;2024-01-07T05:43:04;28.70;;;13.20;;
31010;SDS011;26395;53.412;19.598;2024-01-07T05:58:07;50.60;;;20.20;;
31010;SDS011;26395;53.412;19.598;2024-01-07T06:13:11;46.60;;;20.00;;
31010;SDS011;26395;53.412;19.598;2024-01-07T06:28:16;36.40;;;16.90;;
31010;SDS011;26395;53.412;19.598;2024-01-07T06:43:20;52.10;;;23.20;;
31010;SDS011;26395;53.412;19.598;2024-01-07T06:58:23;62.20;;;24.90;;
31010;SDS011;26395;53.412;19.598;2024-01-07T07:13:27;95.10;;;33.10;;
31010;SDS011;26395;53.412;19.598;2024-01-07T07:28:31;254.40;;;75.00;;
31010;SDS011;26395;53.412;19.598;2024-01-07T07:43:34;200.10;;;66.10;;
31010;SDS011;26395;53.412;19.598;2024-01-07T07:58:38;208.20;;;53.80;;
31010;SDS011;26395;53.412;19.598;2024-01-07T08:13:42;113.10;;;35.40;;
31010;SDS011;26395;53.412;19.598;2024-01-07T08:28:46;55.10;;;18.80;;
31010;SDS011;26395;53.412;19.598;2024-01-07T08:43:49;63.40;;;25.10;;
31010;SDS011;26395;53.412;19.598;2024-01-07T08:58:53;42.30;;;19.40;;
31010;SDS011;26395;53.412;19.598;2024-01-07T09:13:57;55.50;;;25.10;;
31010;SDS011;26395;53.412;19.598;2024-01-07T09:29:01;59.50;;;22.00;;
31010;SDS011;26395;53.412;19.598;2024-01-07T09:44:05;58.80;;;24.80;;
31010;SDS011;26395;53.412;19.598;2024-01-07T09:59:11;84.50;;;33.90;;
31010;SDS011;26395;53.412;19.598;2024-01-07T10:14:15;46.00;;;19.70;;
31010;SDS011;26395;53.412;19.598;2024-01-07T10:44:28;43.20;;;16.00;;
31010;SDS011;26395;53.412;19.598;2024-01-07T10:59:33;44.90;;;19.90;;
31010;SDS011;26395;53.412;19.598;2024-01-07T11:14:40;55.90;;;19.30;;
31010;SDS011;26395;53.412;19.598;2024-01-07T11:44:59;85.70;;;29.40;;
31010;SDS011;26395;53.412;19.598;2024-01-07T12:00:03;55.30;;;22.80;;
31010;SDS011;26395;53.412;19.598;2024-01-07T12:15:14;57.00;;;20.70;;
31010;SDS011;26395;53.412;19.598;2024-01-07T12:30:20;70.10;;;25.00;;
31010;SDS011;26395;53.412;19.598;2024-01-07T12:45:24;50.60;;;19.30;;
31010;SDS011;26395;53.412;19.598;2024-01-07T13:00:32;72.60;;;25.00;;
31010;SDS011;26395;53.412;19.598;2024-01-07T13:15:37;45.20;;;15.70;;
31010;SDS011;26395;53.412;19.598;2024-01-07T13:30:41;88.10;;;25.50;;
31010;SDS011;26395;53.412;19.598;2024-01-07T13:45:45;113.60;;;32.60;;
31010;SDS011;26395;53.412;19.598;2024-01-07T14:00:49;69.10;;;23.60;;
31010;SDS011;26395;53.412;19.598;2024-01-07T14:15:54;142.90;;;47.60;;
31010;SDS011;26395;53.412;19.598;2024-01-07T14:31:02;63.30;;;19.90;;
31010;SDS011;26395;53.412;19.598;2024-01-07T14:46:08;58.10;;;21.10;;
31010;SDS011;26395;53.412;19.598;2024-01-07T15:01:12;104.80;;;31.40;;
31010;SDS011;26395;53.412;19.598;2024-01-07T15:16:17;104.70;;;32.50;;
31010;SDS011;26395;53.412;19.598;2024-01-07T15:31:22;161.10;;;45.70;;
31010;SDS011;26395;53.412;19.598;2024-01-07T15:46:27;328.20;;;93.20;;
31010;SDS011;26395;53.412;19.598;2024-01-07T16:01:30;161.60;;;49.10;;
31010;SDS011;26395;53.412;19.598;2024-01-07T16:16:35;89.60;;;30.70;;
31010;SDS011;26395;53.412;19.598;2024-01-07T16:31:42;85.50;;;25.50;;
31010;SDS011;26395;53.412;19.598;2024-01-07T16:46:46;72.20;;;23.10;;
31010;SDS011;26395;53.412;19.598;2024-01-07T19:21:15;73.30;;;24.50;;
31010;SDS011;26395;53.412;19.598;2024-01-07T19:36:20;84.40;;;25.90;;
31010;SDS011;26395;53.412;19.598;2024-01-07T19:51:25;113.30;;;33.70;;
31010;SDS011;26395;53.412;19.598;2024-01-07T20:06:30;199.70;;;55.40;;
31010;SDS011;26395;53.412;19.598;2024-01-07T20:21:33;86.30;;;27.40;;
31010;SDS011;26395;53.412;19.598;2024-01-07T20:36:41;101.50;;;31.40;;
31010;SDS011;26395;53.412;19.598;2024-01-07T20:51:46;145.90;;;47.80;;
31010;SDS011;26395;53.412;19.598;2024-01-07T21:06:49;118.80;;;28.70;;
31010;SDS011;26395;53.412;19.598;2024-01-07T21:21:54;100.30;;;31.40;;
31010;SDS011;26395;53.412;19.598;2024-01-07T21:36:58;129.80;;;36.90;;
31010;SDS011;26395;53.412;19.598;2024-01-07T21:52:02;95.70;;;29.10;;
31010;SDS011;26395;53.412;19.598;2024-01-07T22:07:08;68.00;;;20.60;;
31010;SDS011;26395;53.412;19.598;2024-01-07T22:22:13;79.40;;;23.70;;
31010;SDS011;26395;53.412;19.598;2024-01-07T22:37:17;78.50;;;26.20;;
31010;SDS011;26395;53.412;19.598;2024-01-07T22:52:20;76.70;;;24.50;;
31010;SDS011;26395;53.412;19.598;2024-01-07T23:07:26;62.20;;;20.00;;
31010;SDS011;26395;53.412;19.598;2024-01-07T23:22:31;69.70;;;22.70;;
31010;SDS011;26395;53.412;19.598;2024-01-07T23:37:39;46.80;;;19.10;;
31010;SDS011;26395;53.412;19.598;2024-01-07T23:52:42;36.30;;;15.00;;
